createdAt,value
2018-05-12T00:01:51.131Z,28.63
2018-05-12T00:04:57.390Z,27.43
2018-05-12T00:08:02.557Z,29.57
2018-05-12T00:11:08.759Z,30.70
2018-05-12T00:14:13.940Z,33.80
2018-05-12T00:17:20.265Z,32.50
2018-05-12T00:20:27.028Z,29.20
2018-05-12T00:23:32.962Z,32.57
2018-05-12T00:26:39.250Z,35.10
2018-05-12T00:29:46.217Z,37.23
2018-05-12T00:32:52.213Z,40.47
2018-05-12T00:36:07.736Z,31.43
2018-05-12T00:39:13.679Z,31.80
2018-05-12T00:42:19.692Z,31.70
2018-05-12T00:45:25.208Z,35.40
2018-05-12T00:48:32.399Z,38.00
2018-05-12T00:51:37.654Z,36.43
2018-05-12T00:54:44.076Z,40.00
2018-05-12T00:57:51.477Z,37.73
2018-05-12T01:00:57.735Z,34.07
2018-05-12T01:04:03.040Z,35.53
2018-05-12T01:07:09.328Z,35.57
2018-05-12T01:10:15.556Z,36.00
2018-05-12T01:13:26.846Z,41.33
2018-05-12T01:16:33.050Z,38.47
2018-05-12T01:19:39.288Z,38.30
2018-05-12T01:22:46.695Z,38.90
2018-05-12T01:25:52.810Z,36.47
2018-05-12T01:28:58.843Z,40.97
2018-05-12T01:32:05.081Z,39.40
2018-05-12T01:35:11.148Z,39.77
2018-05-12T01:38:17.710Z,38.37
2018-05-12T01:41:23.705Z,40.63
2018-05-12T01:44:31.200Z,41.53
2018-05-12T01:47:37.358Z,45.50
2018-05-12T01:50:43.362Z,44.87
2018-05-12T01:53:51.177Z,49.50
2018-05-12T01:56:56.506Z,46.10
2018-05-12T02:00:02.960Z,52.47
2018-05-12T02:03:08.597Z,51.63
2018-05-12T02:06:14.997Z,53.33
2018-05-12T02:09:22.164Z,53.23
2018-05-12T02:12:28.414Z,52.00
2018-05-12T02:15:34.499Z,50.20
2018-05-12T02:18:40.620Z,50.87
2018-05-12T02:21:47.144Z,49.00
2018-05-12T02:24:52.875Z,48.83
2018-05-12T02:27:58.306Z,53.77
2018-05-12T02:31:04.820Z,50.77
2018-05-12T02:34:11.248Z,52.60
2018-05-12T02:37:17.402Z,50.80
2018-05-12T02:40:23.401Z,49.63
2018-05-12T02:43:28.884Z,49.67
2018-05-12T02:46:35.094Z,46.10
2018-05-12T02:49:41.366Z,45.67
2018-05-12T02:52:47.705Z,53.00
2018-05-12T02:55:53.997Z,46.13
2018-05-12T02:59:00.198Z,51.03
2018-05-12T03:02:06.356Z,52.80
2018-05-12T03:05:12.506Z,54.13
2018-05-12T03:08:18.678Z,52.10
2018-05-12T03:11:25.302Z,56.17
2018-05-12T03:14:32.174Z,53.07
2018-05-12T03:17:38.108Z,52.60
2018-05-12T03:20:44.308Z,54.20
2018-05-12T03:23:50.237Z,56.10
2018-05-12T03:26:56.046Z,53.60
2018-05-12T03:30:02.976Z,53.20
2018-05-12T03:33:08.615Z,45.97
2018-05-12T03:36:14.935Z,51.03
2018-05-12T03:39:21.405Z,51.70
2018-05-12T03:42:27.610Z,49.30
2018-05-12T03:45:33.707Z,43.70
2018-05-12T03:48:39.236Z,46.03
2018-05-12T03:51:44.510Z,47.53
2018-05-12T03:54:50.210Z,47.50
2018-05-12T03:57:57.597Z,47.00
2018-05-12T04:01:04.425Z,48.90
2018-05-12T04:04:10.684Z,46.60
2018-05-12T04:07:29.271Z,47.57
2018-05-12T04:10:41.014Z,44.00
2018-05-12T04:13:47.640Z,41.83
2018-05-12T04:16:53.088Z,41.80
2018-05-12T04:19:59.324Z,41.17
2018-05-12T04:23:04.619Z,42.10
2018-05-12T04:26:09.998Z,37.43
2018-05-12T04:29:16.363Z,38.57
2018-05-12T04:32:22.533Z,31.90
2018-05-12T04:35:28.779Z,31.10
2018-05-12T04:38:34.871Z,31.40
2018-05-12T04:41:40.941Z,29.50
2018-05-12T04:44:46.912Z,27.70
2018-05-12T04:47:53.193Z,27.53
2018-05-12T04:50:58.427Z,26.30
2018-05-12T04:54:04.419Z,24.60
2018-05-12T04:57:10.514Z,23.10
2018-05-12T05:00:16.815Z,20.23
2018-05-12T05:03:24.068Z,17.50
2018-05-12T05:06:30.321Z,17.60
2018-05-12T05:09:35.717Z,15.50
2018-05-12T05:12:42.329Z,17.73
2018-05-12T05:15:48.457Z,17.00
2018-05-12T05:18:54.589Z,15.63
2018-05-12T05:22:00.994Z,11.37
2018-05-12T05:25:08.261Z,13.57
2018-05-12T05:30:57.248Z,13.40
2018-05-12T05:34:03.442Z,11.33
2018-05-12T05:37:09.732Z,12.03
2018-05-12T05:40:15.722Z,11.30
2018-05-12T05:43:21.955Z,12.23
2018-05-12T05:46:28.092Z,11.97
2018-05-12T05:49:34.228Z,12.30
2018-05-12T05:52:40.532Z,12.80
2018-05-12T05:55:45.817Z,13.83
2018-05-12T05:58:51.862Z,12.97
2018-05-12T06:01:57.398Z,12.23
2018-05-12T06:05:03.278Z,11.97
2018-05-12T06:08:09.408Z,12.67
2018-05-12T06:11:15.532Z,12.80
2018-05-12T06:14:21.731Z,11.17
2018-05-12T06:17:28.102Z,10.07
2018-05-12T06:20:34.206Z,9.23
2018-05-12T06:23:41.268Z,8.80
2018-05-12T06:26:50.435Z,6.50
2018-05-12T06:29:56.933Z,6.63
2018-05-12T06:33:02.072Z,6.43
2018-05-12T06:36:08.042Z,5.77
2018-05-12T06:39:14.231Z,5.33
2018-05-12T06:42:20.258Z,6.70
2018-05-12T06:45:27.049Z,6.17
2018-05-12T06:48:33.517Z,6.10
2018-05-12T06:51:39.104Z,5.67
2018-05-12T06:54:46.391Z,6.10
2018-05-12T06:57:52.818Z,5.27
2018-05-12T07:00:59.655Z,5.30
2018-05-12T07:04:05.892Z,5.50
2018-05-12T07:07:12.220Z,5.67
2018-05-12T07:10:17.953Z,5.80
2018-05-12T07:13:23.937Z,5.70
2018-05-12T07:16:30.203Z,5.50
2018-05-12T07:19:36.488Z,4.70
2018-05-12T07:22:42.780Z,6.03
2018-05-12T07:25:48.927Z,5.60
2018-05-12T07:28:56.146Z,5.57
2018-05-12T07:32:02.475Z,6.23
2018-05-12T07:35:09.498Z,8.07
2018-05-12T07:38:15.581Z,7.50
2018-05-12T07:41:21.702Z,10.40
2018-05-12T07:44:27.916Z,11.97
2018-05-12T07:47:33.867Z,11.80
2018-05-12T07:50:39.719Z,11.97
2018-05-12T07:53:46.021Z,10.60
2018-05-12T07:56:53.111Z,10.60
2018-05-12T07:59:59.146Z,11.53
2018-05-12T08:03:05.108Z,12.10
2018-05-12T08:06:11.203Z,12.30
2018-05-12T08:09:17.230Z,12.60
2018-05-12T08:12:23.409Z,13.60
2018-05-12T08:15:29.534Z,13.73
2018-05-12T08:18:35.460Z,13.23
2018-05-12T08:21:41.362Z,13.83
2018-05-12T08:24:48.478Z,15.07
2018-05-12T08:27:55.492Z,16.37
2018-05-12T08:31:01.352Z,17.07
2018-05-12T08:34:07.381Z,19.17
2018-05-12T08:37:13.381Z,20.00
2018-05-12T08:40:19.487Z,19.00
2018-05-12T08:43:25.408Z,17.43
2018-05-12T08:46:31.295Z,16.70
2018-05-12T08:49:37.430Z,16.90
2018-05-12T08:52:43.238Z,17.53
2018-05-12T08:55:49.523Z,19.27
2018-05-12T08:58:57.396Z,17.43
2018-05-12T09:02:03.726Z,18.27
2018-05-12T09:05:09.686Z,18.30
2018-05-12T09:08:15.677Z,19.80
2018-05-12T09:11:21.645Z,16.23
2018-05-12T09:14:27.730Z,18.60
2018-05-12T09:17:33.788Z,18.50
2018-05-12T09:20:40.323Z,17.10
2018-05-12T09:23:46.591Z,17.17
2018-05-12T09:26:52.940Z,16.40
2018-05-12T09:30:00.101Z,18.00
2018-05-12T09:33:06.143Z,18.30
2018-05-12T09:36:12.213Z,17.03
2018-05-12T09:39:18.444Z,19.57
2018-05-12T09:42:24.875Z,18.30
2018-05-12T09:45:31.283Z,20.03
2018-05-12T09:48:38.009Z,17.30
2018-05-12T09:51:44.027Z,16.47
2018-05-12T09:54:50.158Z,17.40
2018-05-12T09:57:57.469Z,20.10
2018-05-12T10:01:04.307Z,17.73
2018-05-12T10:04:10.209Z,19.30
2018-05-12T10:07:16.595Z,19.40
2018-05-12T10:10:22.581Z,21.23
2018-05-12T10:13:29.589Z,19.43
2018-05-12T10:16:35.449Z,21.67
2018-05-12T10:19:41.510Z,23.10
2018-05-12T10:22:47.513Z,23.70
2018-05-12T10:25:53.361Z,21.60
2018-05-12T10:28:59.619Z,20.33
2018-05-12T10:32:05.745Z,21.30
2018-05-12T10:35:12.820Z,20.47
2018-05-12T10:38:18.654Z,22.27
2018-05-12T10:41:25.009Z,20.90
2018-05-12T10:44:31.069Z,20.23
2018-05-12T10:47:37.277Z,17.93
2018-05-12T10:50:43.317Z,13.60
2018-05-12T10:53:50.046Z,15.97
2018-05-12T10:56:57.341Z,15.33
2018-05-12T11:00:03.378Z,15.93
2018-05-12T11:03:10.380Z,14.60
2018-05-12T11:06:16.594Z,17.60
2018-05-12T11:09:23.655Z,14.03
2018-05-12T11:12:30.825Z,13.47
2018-05-12T11:15:36.371Z,15.17
2018-05-12T11:18:42.696Z,13.93
2018-05-12T11:21:49.640Z,14.90
2018-05-12T11:24:55.562Z,16.43
2018-05-12T11:28:02.471Z,16.03
2018-05-12T11:31:08.862Z,14.60
2018-05-12T11:34:15.889Z,14.73
2018-05-12T11:37:22.765Z,16.60
2018-05-12T11:40:28.880Z,15.50
2018-05-12T11:43:35.740Z,14.60
2018-05-12T11:46:43.244Z,12.40
2018-05-12T11:49:50.506Z,11.97
2018-05-12T11:52:56.656Z,11.77
2018-05-12T11:56:04.961Z,11.77
2018-05-12T11:59:15.649Z,11.60
2018-05-12T12:02:21.514Z,10.27
2018-05-12T12:05:29.769Z,8.57
2018-05-12T12:08:36.948Z,8.67
2018-05-12T12:11:43.990Z,11.10
2018-05-12T12:14:51.005Z,9.40
2018-05-12T12:17:58.149Z,11.00
2018-05-12T12:21:07.711Z,11.00
2018-05-12T12:24:14.862Z,10.00
2018-05-12T12:27:20.735Z,10.90
2018-05-12T12:30:27.019Z,10.77
2018-05-12T12:33:34.001Z,9.60
2018-05-12T12:36:42.144Z,8.70
2018-05-12T12:39:48.291Z,10.13
2018-05-12T12:42:56.145Z,8.70
2018-05-12T12:46:03.154Z,7.37
2018-05-12T12:49:10.254Z,10.40
2018-05-12T12:52:16.623Z,9.67
2018-05-12T12:55:24.718Z,10.40
2018-05-12T12:58:30.751Z,9.03
2018-05-12T13:01:36.640Z,7.93
2018-05-12T13:04:43.753Z,7.40
2018-05-12T13:07:49.960Z,7.20
2018-05-12T13:10:56.388Z,7.30
2018-05-12T13:14:04.280Z,8.20
2018-05-12T13:17:10.406Z,7.03
2018-05-12T13:20:18.964Z,8.43
2018-05-12T13:23:26.735Z,7.20
2018-05-12T13:26:33.373Z,7.17
2018-05-12T13:29:40.214Z,7.60
2018-05-12T13:32:45.934Z,6.20
2018-05-12T13:35:52.033Z,7.20
2018-05-12T13:38:57.965Z,7.33
2018-05-12T13:42:04.057Z,5.80
2018-05-12T13:45:10.183Z,6.60
2018-05-12T13:48:17.380Z,6.33
2018-05-12T13:51:24.526Z,6.33
2018-05-12T13:54:31.120Z,7.20
2018-05-12T13:57:37.542Z,6.20
2018-05-12T14:00:43.485Z,5.97
2018-05-12T14:03:49.989Z,5.90
2018-05-12T14:06:56.438Z,6.10
2018-05-12T14:10:02.714Z,5.47
2018-05-12T14:13:09.464Z,5.90
2018-05-12T14:16:16.611Z,5.23
2018-05-12T14:19:22.712Z,4.97
2018-05-12T14:22:28.504Z,6.07
2018-05-12T14:25:35.484Z,5.40
2018-05-12T14:28:41.412Z,5.13
2018-05-12T14:31:48.444Z,5.00
2018-05-12T14:34:54.623Z,4.53
2018-05-12T14:38:00.486Z,4.43
2018-05-12T14:41:05.845Z,5.10
2018-05-12T14:44:14.008Z,4.20
2018-05-12T14:47:22.878Z,4.53
2018-05-12T14:50:30.061Z,4.77
2018-05-12T14:53:36.727Z,4.83
2018-05-12T14:56:45.481Z,4.90
2018-05-12T14:59:51.717Z,4.50
2018-05-12T15:03:00.480Z,5.20
2018-05-12T15:06:07.250Z,4.57
2018-05-12T15:09:14.389Z,5.10
2018-05-12T15:12:20.729Z,4.80
2018-05-12T15:15:27.500Z,4.93
2018-05-12T15:18:32.879Z,4.80
2018-05-12T15:21:40.766Z,5.07
2018-05-12T15:24:47.467Z,4.90
2018-05-12T15:27:53.889Z,4.73
2018-05-12T15:31:01.189Z,4.53
2018-05-12T15:34:08.936Z,4.77
2018-05-12T15:37:14.829Z,4.30
2018-05-12T15:40:25.864Z,4.60
2018-05-12T15:43:33.051Z,4.80
2018-05-12T15:46:41.237Z,4.10
2018-05-12T15:49:48.737Z,4.50
2018-05-12T15:53:01.671Z,4.87
2018-05-12T15:56:13.666Z,4.80
2018-05-12T15:59:21.491Z,4.70
2018-05-12T16:02:27.515Z,4.27
2018-05-12T16:05:34.390Z,4.63
2018-05-12T16:08:40.996Z,4.67
2018-05-12T16:11:47.788Z,4.77
2018-05-12T16:14:54.755Z,4.50
2018-05-12T16:18:00.772Z,4.37
2018-05-12T16:21:06.702Z,4.40
2018-05-12T16:24:13.591Z,5.00
2018-05-12T16:27:19.475Z,5.00
2018-05-12T16:30:25.455Z,5.27
2018-05-12T16:33:31.467Z,4.90
2018-05-12T16:36:37.730Z,5.70
2018-05-12T16:39:43.452Z,4.93
2018-05-12T16:42:57.335Z,6.07
2018-05-12T16:46:04.480Z,5.53
2018-05-12T16:49:11.307Z,5.83
2018-05-12T16:52:17.268Z,5.57
2018-05-12T16:55:22.990Z,5.10
2018-05-12T16:58:29.803Z,5.77
2018-05-12T17:01:35.652Z,5.50
2018-05-12T17:04:41.629Z,5.53
2018-05-12T17:07:47.808Z,4.97
2018-05-12T17:10:53.838Z,5.37
2018-05-12T17:13:59.915Z,5.20
2018-05-12T17:17:06.921Z,5.57
2018-05-12T17:20:12.666Z,6.00
2018-05-12T17:23:18.920Z,6.30
2018-05-12T17:26:25.144Z,5.47
2018-05-12T17:29:31.009Z,5.70
2018-05-12T17:32:37.184Z,5.90
2018-05-12T17:35:43.326Z,5.93
2018-05-12T17:38:50.318Z,6.63
2018-05-12T17:41:57.457Z,5.70
2018-05-12T17:45:03.696Z,5.77
2018-05-12T17:48:11.387Z,5.07
2018-05-12T17:51:18.321Z,6.03
2018-05-12T17:54:24.466Z,6.20
2018-05-12T17:57:31.474Z,6.57
2018-05-12T18:00:38.234Z,6.13
2018-05-12T18:03:44.499Z,6.13
2018-05-12T18:06:51.476Z,5.63
2018-05-12T18:09:57.749Z,5.67
2018-05-12T18:13:04.551Z,5.93
2018-05-12T18:16:10.469Z,5.10
2018-05-12T18:19:16.914Z,6.33
2018-05-12T18:22:25.260Z,6.17
2018-05-12T18:25:31.943Z,5.10
2018-05-12T18:28:39.224Z,5.90
2018-05-12T18:31:45.832Z,5.80
2018-05-12T18:34:51.864Z,5.30
2018-05-12T18:37:57.931Z,5.87
2018-05-12T18:41:03.936Z,6.17
2018-05-12T18:44:10.179Z,5.43
2018-05-12T18:47:16.613Z,6.20
2018-05-12T18:50:25.926Z,6.90
2018-05-12T18:53:31.983Z,6.20
2018-05-12T18:56:37.961Z,5.43
2018-05-12T18:59:43.958Z,5.80
2018-05-12T19:02:50.018Z,5.43
2018-05-12T19:05:56.081Z,5.57
2018-05-12T19:09:01.979Z,4.90
2018-05-12T19:12:08.395Z,5.10
2018-05-12T19:15:14.728Z,5.73
2018-05-12T19:18:20.708Z,4.83
2018-05-12T19:21:26.943Z,5.03
2018-05-12T19:24:33.111Z,4.57
2018-05-12T19:27:39.168Z,5.07
2018-05-12T19:30:45.637Z,6.70
2018-05-12T19:33:52.513Z,6.43
2018-05-12T19:36:59.744Z,5.67
2018-05-12T19:40:05.663Z,5.17
2018-05-12T19:43:15.270Z,5.27
2018-05-12T19:46:21.207Z,5.30
2018-05-12T19:49:27.570Z,4.73
2018-05-12T19:52:33.632Z,5.00
2018-05-12T19:55:40.117Z,4.90
2018-05-12T19:58:46.800Z,4.43
2018-05-12T20:01:54.484Z,5.57
2018-05-12T20:05:01.471Z,5.23
2018-05-12T20:08:12.450Z,5.07
2018-05-12T20:11:18.465Z,5.20
2018-05-12T20:14:24.446Z,5.80
2018-05-12T20:17:37.534Z,6.77
2018-05-12T20:20:45.260Z,5.37
2018-05-12T20:23:54.150Z,6.27
2018-05-12T20:26:59.953Z,6.07
2018-05-12T20:30:07.089Z,6.70
2018-05-12T20:33:14.176Z,5.40
2018-05-12T20:36:20.968Z,6.97
2018-05-12T20:39:27.050Z,5.97
2018-05-12T20:42:33.010Z,5.80
2018-05-12T20:45:38.936Z,5.60
2018-05-12T20:48:45.454Z,6.33
2018-05-12T20:51:52.516Z,5.90
2018-05-12T20:54:59.323Z,6.00
2018-05-12T20:58:05.636Z,5.90
2018-05-12T21:01:11.468Z,5.63
2018-05-12T21:04:17.432Z,5.80
2018-05-12T21:07:23.517Z,5.70
2018-05-12T21:10:30.351Z,6.33
2018-05-12T21:13:36.359Z,6.50
2018-05-12T21:16:41.515Z,7.07
2018-05-12T21:19:47.818Z,6.13
2018-05-12T21:22:53.877Z,5.87
2018-05-12T21:25:59.864Z,6.03
2018-05-12T21:29:06.606Z,6.27
2018-05-12T21:32:15.433Z,6.13
2018-05-12T21:35:41.200Z,6.50
2018-05-12T21:38:47.527Z,7.30
2018-05-12T21:41:53.427Z,7.27
2018-05-12T21:45:01.210Z,6.50
2018-05-12T21:48:08.222Z,6.30
2018-05-12T21:51:14.979Z,6.57
2018-05-12T21:54:20.873Z,6.60
2018-05-12T21:57:27.571Z,6.40
2018-05-12T22:00:33.690Z,6.27
2018-05-12T22:03:39.738Z,6.70
2018-05-12T22:06:45.811Z,7.50
2018-05-12T22:09:52.208Z,6.00
2018-05-12T22:12:58.333Z,6.67
2018-05-12T22:16:04.456Z,6.47
2018-05-12T22:19:10.416Z,7.03
2018-05-12T22:22:16.514Z,6.90
2018-05-12T22:25:22.869Z,6.60
2018-05-12T22:28:29.687Z,6.80
2018-05-12T22:31:38.703Z,7.30
2018-05-12T22:34:44.663Z,7.17
2018-05-12T22:37:50.473Z,6.97
2018-05-12T22:40:56.402Z,7.00
2018-05-12T22:44:02.579Z,6.50
2018-05-12T22:47:08.557Z,8.20
2018-05-12T22:50:14.446Z,7.80
2018-05-12T22:53:20.624Z,8.13
2018-05-12T22:56:26.979Z,8.30
2018-05-12T22:59:34.523Z,8.30
2018-05-12T23:02:40.635Z,9.20
2018-05-12T23:05:46.629Z,8.67
2018-05-12T23:08:52.584Z,9.83
2018-05-12T23:11:58.592Z,10.27
2018-05-12T23:15:04.839Z,10.50
2018-05-12T23:18:10.963Z,9.57
2018-05-12T23:21:17.364Z,9.50
2018-05-12T23:24:23.639Z,11.27
2018-05-12T23:27:29.804Z,10.43
2018-05-12T23:30:36.040Z,9.47
2018-05-12T23:33:41.905Z,9.53
2018-05-12T23:36:47.911Z,10.37
2018-05-12T23:39:54.924Z,10.17
2018-05-12T23:43:01.073Z,9.37
2018-05-12T23:46:07.256Z,10.30
2018-05-12T23:49:13.432Z,9.87
2018-05-12T23:52:19.361Z,9.13
2018-05-12T23:55:25.213Z,9.33
2018-05-12T23:58:31.855Z,9.60
